Time;durP1;ratioP1;P1;durP2;ratioP2;P2;SDS_P1;SDS_P2;PMS_P1;PMS_P2;Temp;Humidity;BMP_temperature;BMP_pressure;BME280_temperature;BME280_humidity;BME280_pressure;Samples;Min_cycle;Max_cycle;Signal;HPM_P1;HPM_P2
2022/07/20 00:01:32;;;;;;;6.38;2.90;;;28.10;49.00;;;;;;5065751;28;20115;-79
2022/07/20 00:03:58;;;;;;;4.45;2.85;;;28.10;49.00;;;;;;5073498;28;20040;-79
2022/07/20 00:06:24;;;;;;;4.90;3.00;;;28.00;49.10;;;;;;5080783;28;20434;-79
2022/07/20 00:11:36;;;;;;;4.32;2.88;;;27.70;49.40;;;;;;5093538;28;20048;-79
2022/07/20 00:14:04;;;;;;;4.80;2.80;;;27.60;49.70;;;;;;5095416;28;20028;-79
2022/07/20 00:16:33;;;;;;;5.70;2.90;;;27.50;50.00;;;;;;5088230;28;20020;-79
2022/07/20 00:18:59;;;;;;;4.05;2.60;;;27.50;50.00;;;;;;5067208;28;20049;-79
2022/07/20 00:21:25;;;;;;;5.85;2.90;;;27.50;50.30;;;;;;5059060;28;20071;-80
2022/07/20 00:23:51;;;;;;;15.38;3.10;;;27.50;50.40;;;;;;5093767;28;20425;-78
2022/07/20 00:26:17;;;;;;;4.85;2.58;;;27.50;50.30;;;;;;5058912;28;20032;-80
2022/07/20 00:28:43;;;;;;;7.47;2.80;;;27.40;50.60;;;;;;5078995;28;20755;-80
2022/07/20 00:31:09;;;;;;;5.28;2.85;;;27.50;50.50;;;;;;5083315;28;20032;-79
2022/07/20 00:33:35;;;;;;;6.47;2.80;;;27.70;50.30;;;;;;5072047;28;20112;-80
2022/07/20 00:36:00;;;;;;;6.47;2.72;;;27.90;50.00;;;;;;5085059;28;20020;-79
2022/07/20 00:38:26;;;;;;;4.80;2.90;;;28.00;49.70;;;;;;5090530;28;20039;-79
2022/07/20 00:40:52;;;;;;;5.13;3.17;;;28.10;49.70;;;;;;5062126;28;20483;-79
2022/07/20 00:43:18;;;;;;;6.38;2.88;;;28.10;49.60;;;;;;5076478;28;20040;-79
2022/07/20 00:45:43;;;;;;;4.38;2.70;;;28.00;49.50;;;;;;5058033;28;20166;-79
2022/07/20 00:48:09;;;;;;;6.38;3.00;;;27.80;49.60;;;;;;5070220;28;20418;-78
2022/07/20 00:50:35;;;;;;;6.80;3.13;;;27.60;49.90;;;;;;5076767;28;20032;-79
2022/07/20 00:53:00;;;;;;;6.60;3.22;;;27.50;50.00;;;;;;5089655;28;20373;-78
2022/07/20 00:55:27;;;;;;;5.20;2.70;;;27.40;50.10;;;;;;5075724;28;20029;-79
2022/07/20 00:57:53;;;;;;;4.43;2.40;;;27.40;50.00;;;;;;5061825;28;20032;-80
2022/07/20 01:00:19;;;;;;;4.88;2.83;;;27.40;50.00;;;;;;5095079;28;20043;-79
2022/07/20 01:02:44;;;;;;;7.03;3.25;;;27.50;49.90;;;;;;5095692;28;20383;-80
2022/07/20 01:05:13;;;;;;;5.22;2.92;;;27.50;49.80;;;;;;5086376;28;20458;-79
2022/07/20 01:07:49;;;;;;;4.85;2.85;;;27.50;49.90;;;;;;5070322;28;20097;-80
2022/07/20 01:10:16;;;;;;;4.80;2.95;;;27.40;50.20;;;;;;5061607;28;20029;-80
2022/07/20 01:12:48;;;;;;;4.43;2.63;;;27.40;50.20;;;;;;5069890;28;20089;-80
2022/07/20 01:15:14;;;;;;;7.70;2.60;;;27.40;50.20;;;;;;5087971;28;20028;-80
2022/07/20 01:17:39;;;;;;;6.82;2.67;;;27.30;50.10;;;;;;5059632;28;20037;-79
2022/07/20 01:20:06;;;;;;;4.63;2.60;;;27.20;49.80;;;;;;5067861;28;20024;-77
2022/07/20 01:22:31;;;;;;;5.03;2.70;;;27.30;49.70;;;;;;5094112;28;20020;-80
2022/07/20 01:24:58;;;;;;;4.82;2.35;;;27.20;49.70;;;;;;5083770;28;20169;-80
2022/07/20 01:27:23;;;;;;;4.50;2.42;;;27.30;49.90;;;;;;5068951;28;20101;-79
2022/07/20 01:29:49;;;;;;;4.18;2.50;;;27.50;49.10;;;;;;5079041;28;20063;-79
2022/07/20 01:32:15;;;;;;;6.07;2.53;;;27.60;48.80;;;;;;5078529;28;20024;-79
2022/07/20 01:34:41;;;;;;;4.28;2.42;;;27.60;48.70;;;;;;5091611;28;20036;-79
2022/07/20 01:37:06;;;;;;;5.45;2.60;;;27.30;48.90;;;;;;5085191;28;20027;-80
2022/07/20 01:39:32;;;;;;;5.72;2.60;;;27.10;49.10;;;;;;5062341;28;20071;-80
2022/07/20 01:41:58;;;;;;;4.78;2.70;;;27.20;49.40;;;;;;5075190;28;20360;-79
2022/07/20 01:44:23;;;;;;;3.83;2.53;;;27.20;49.50;;;;;;5091492;28;20028;-80
2022/07/20 01:46:50;;;;;;;4.63;2.75;;;27.20;49.60;;;;;;5068462;28;20016;-79
2022/07/20 01:49:17;;;;;;;4.65;2.70;;;27.10;49.60;;;;;;5057082;28;20035;-80
2022/07/20 01:51:43;;;;;;;6.68;2.70;;;27.10;49.80;;;;;;5056534;28;20035;-79
2022/07/20 01:54:10;;;;;;;5.05;2.70;;;27.00;50.40;;;;;;5062745;28;20032;-82
2022/07/20 01:56:40;;;;;;;4.10;2.90;;;26.80;51.10;;;;;;5077303;28;20391;-83
2022/07/20 01:59:06;;;;;;;;;;;26.60;51.80;;;;;;5062975;28;20475;-83
2022/07/20 02:01:32;;;;;;;4.05;2.60;;;26.40;52.20;;;;;;5085207;28;19908;-79
2022/07/20 02:03:57;;;;;;;5.43;2.63;;;26.50;52.30;;;;;;5091067;28;20039;-84
2022/07/20 02:06:23;;;;;;;5.35;2.92;;;26.60;52.10;;;;;;5088082;28;20162;-79
2022/07/20 02:08:49;;;;;;;4.82;2.58;;;26.70;52.10;;;;;;5058674;28;20032;-86
2022/07/20 02:11:15;;;;;;;4.63;2.67;;;26.70;52.10;;;;;;5072840;28;20124;-80
2022/07/20 02:13:40;;;;;;;5.57;2.67;;;26.80;51.50;;;;;;5074764;28;20048;-80
2022/07/20 02:16:15;;;;;;;5.90;2.65;;;26.80;51.50;;;;;;5092511;28;20020;-81
2022/07/20 02:18:42;;;;;;;3.83;2.58;;;27.00;51.00;;;;;;5084547;28;20498;-80
2022/07/20 02:21:08;;;;;;;5.03;2.60;;;27.10;50.90;;;;;;5090423;28;20386;-79
2022/07/20 02:23:33;;;;;;;4.85;2.88;;;27.10;50.70;;;;;;5089234;28;20039;-79
2022/07/20 02:25:59;;;;;;;5.43;2.78;;;27.10;50.60;;;;;;5093267;28;20360;-78
2022/07/20 02:28:25;;;;;;;4.15;2.63;;;27.20;50.30;;;;;;5082927;28;20067;-79
2022/07/20 02:30:50;;;;;;;6.90;2.85;;;27.30;50.20;;;;;;5079200;28;20417;-79
2022/07/20 02:33:16;;;;;;;6.43;2.92;;;27.30;50.10;;;;;;5071249;28;20024;-79
2022/07/20 02:35:42;;;;;;;4.38;2.50;;;27.30;50.00;;;;;;5063681;28;20050;-79
2022/07/20 02:38:07;;;;;;;6.30;2.90;;;27.00;50.40;;;;;;5055914;28;20036;-79
2022/07/20 02:40:33;;;;;;;4.80;2.60;;;26.90;51.10;;;;;;5064662;28;20020;-79
2022/07/20 02:42:59;;;;;;;7.32;3.00;;;26.90;51.00;;;;;;5073303;28;20471;-80
2022/07/20 02:45:24;;;;;;;5.47;2.85;;;27.00;50.50;;;;;;5094468;28;20024;-79
2022/07/20 02:47:50;;;;;;;6.03;2.83;;;27.10;50.60;;;;;;5089797;28;20020;-79
2022/07/20 02:50:17;;;;;;;5.13;2.90;;;27.10;51.30;;;;;;5074732;28;20024;-79
2022/07/20 02:52:43;;;;;;;6.70;3.10;;;27.20;51.50;;;;;;5069761;28;20025;-80
2022/07/20 02:55:10;;;;;;;6.55;2.92;;;27.20;51.60;;;;;;5055662;28;20036;-79
2022/07/20 02:57:36;;;;;;;4.60;2.80;;;27.10;51.10;;;;;;5055540;28;20037;-79
2022/07/20 03:00:06;;;;;;;4.43;2.88;;;27.00;51.40;;;;;;5088724;28;20024;-80
2022/07/20 03:02:31;;;;;;;4.43;2.80;;;26.90;51.30;;;;;;5071233;28;20032;-80
2022/07/20 03:04:57;;;;;;;4.32;2.70;;;26.70;52.00;;;;;;5063053;28;20608;-80
2022/07/20 03:07:23;;;;;;;4.10;2.75;;;26.40;52.50;;;;;;5074303;28;20159;-80
2022/07/20 03:09:48;;;;;;;5.57;3.35;;;26.40;52.50;;;;;;5088230;28;20546;-79
2022/07/20 03:12:14;;;;;;;5.53;2.90;;;26.50;52.10;;;;;;5075753;28;20032;-78
2022/07/20 03:14:39;;;;;;;4.97;2.95;;;26.40;52.10;;;;;;5068987;28;20028;-81
2022/07/20 03:17:05;;;;;;;4.40;3.00;;;26.10;52.40;;;;;;5069326;28;20463;-80
2022/07/20 03:19:31;;;;;;;6.15;3.10;;;26.00;52.70;;;;;;5072681;28;20044;-79
2022/07/20 03:21:56;;;;;;;4.68;2.80;;;26.20;52.30;;;;;;5057450;28;20020;-79
2022/07/20 03:24:22;;;;;;;8.45;2.97;;;26.30;52.10;;;;;;5090829;28;20039;-80
2022/07/20 03:26:48;;;;;;;5.45;2.92;;;26.40;51.70;;;;;;5092640;28;20036;-81
2022/07/20 03:29:13;;;;;;;6.13;3.08;;;26.60;51.60;;;;;;5060058;28;20055;-80
2022/07/20 03:31:39;;;;;;;9.70;3.20;;;26.70;51.50;;;;;;5086719;28;20093;-80
2022/07/20 03:34:05;;;;;;;6.95;2.88;;;26.60;51.80;;;;;;5078652;28;20035;-80
2022/07/20 03:36:30;;;;;;;8.82;3.00;;;26.60;51.70;;;;;;5067030;28;20098;-81
2022/07/20 03:38:56;;;;;;;4.32;3.00;;;26.50;52.00;;;;;;5057415;28;20036;-80
2022/07/20 03:41:22;;;;;;;5.13;3.00;;;26.50;51.80;;;;;;5090700;28;20028;-81
2022/07/20 03:43:49;;;;;;;5.97;2.97;;;26.50;51.70;;;;;;5083740;28;20040;-81
2022/07/20 03:46:17;;;;;;;7.40;2.92;;;26.40;52.00;;;;;;5062766;28;20048;-80
2022/07/20 03:48:44;;;;;;;5.28;2.80;;;26.30;52.20;;;;;;5088477;28;20019;-81
2022/07/20 03:51:09;;;;;;;5.82;2.67;;;26.50;52.00;;;;;;5079313;28;20470;-81
2022/07/20 03:53:35;;;;;;;4.95;2.70;;;26.50;51.80;;;;;;5070278;28;20040;-80
2022/07/20 03:56:01;;;;;;;9.60;2.67;;;26.40;52.20;;;;;;5076971;28;20074;-78
2022/07/20 03:58:26;;;;;;;9.73;3.15;;;26.50;52.30;;;;;;5085615;28;20032;-82
2022/07/20 04:00:52;;;;;;;6.78;2.80;;;26.10;53.30;;;;;;5073159;28;20436;-83
2022/07/20 04:03:18;;;;;;;7.63;3.75;;;26.00;53.70;;;;;;5076734;28;20055;-80
2022/07/20 04:05:43;;;;;;;11.90;3.08;;;26.00;53.60;;;;;;5081494;28;20020;-80
2022/07/20 04:08:09;;;;;;;9.00;3.10;;;26.10;53.70;;;;;;5076225;28;20123;-80
2022/07/20 04:10:35;;;;;;;5.47;2.92;;;26.30;53.60;;;;;;5093820;28;20020;-80
2022/07/20 04:13:05;;;;;;;6.50;3.10;;;26.50;53.20;;;;;;5084931;28;20028;-81
2022/07/20 04:15:31;;;;;;;6.38;2.70;;;26.60;53.10;;;;;;5064663;28;20479;-80
2022/07/20 04:17:57;;;;;;;6.70;3.08;;;26.80;52.80;;;;;;5094016;28;20072;-79
2022/07/20 04:20:23;;;;;;;5.72;3.05;;;26.90;52.70;;;;;;5075098;28;20028;-80
2022/07/20 04:22:49;;;;;;;9.05;3.58;;;26.90;52.70;;;;;;5087219;28;20043;-80
2022/07/20 04:25:15;;;;;;;6.40;3.20;;;27.10;52.80;;;;;;5094779;28;20056;-79
2022/07/20 04:27:42;;;;;;;7.05;2.75;;;27.20;52.60;;;;;;5062007;28;20024;-78
2022/07/20 04:30:09;;;;;;;13.80;3.08;;;27.30;52.80;;;;;;5062297;28;20030;-78
2022/07/20 04:32:34;;;;;;;10.40;3.28;;;27.20;53.10;;;;;;5078201;28;20058;-78
2022/07/20 04:35:00;;;;;;;8.50;3.03;;;27.10;53.20;;;;;;5096798;28;20108;-79
2022/07/20 04:37:26;;;;;;;5.95;2.97;;;27.20;53.30;;;;;;5086909;28;20490;-79
2022/07/20 04:39:51;;;;;;;7.63;2.90;;;27.30;53.30;;;;;;5080381;28;20036;-78
2022/07/20 04:42:17;;;;;;;5.80;2.90;;;27.50;53.00;;;;;;5095498;28;20352;-78
2022/07/20 04:44:43;;;;;;;5.18;3.10;;;27.60;52.90;;;;;;5071709;28;20131;-78
2022/07/20 04:47:09;;;;;;;7.22;2.83;;;27.80;52.80;;;;;;5076539;28;20499;-78
2022/07/20 04:49:34;;;;;;;8.63;2.90;;;27.50;53.20;;;;;;5065118;28;20479;-80
2022/07/20 04:52:00;;;;;;;6.65;3.17;;;27.40;54.00;;;;;;5074650;28;20025;-80
2022/07/20 04:54:26;;;;;;;7.68;2.60;;;27.30;54.10;;;;;;5074989;28;20467;-78
2022/07/20 04:56:52;;;;;;;8.05;3.03;;;27.20;53.80;;;;;;5075599;28;20025;-78
2022/07/20 04:59:17;;;;;;;6.93;3.92;;;27.20;54.30;;;;;;5070242;28;20158;-78
2022/07/20 05:01:43;;;;;;;7.13;3.28;;;27.40;54.90;;;;;;5091145;28;20036;-79
2022/07/20 05:04:09;;;;;;;7.78;3.08;;;27.60;54.10;;;;;;5093509;28;20052;-80
2022/07/20 05:06:35;;;;;;;6.70;3.05;;;27.80;53.90;;;;;;5096321;28;20020;-77
2022/07/20 05:09:01;;;;;;;6.80;2.95;;;28.00;52.80;;;;;;5076761;28;20546;-79
2022/07/20 05:11:26;;;;;;;9.68;2.90;;;28.00;51.90;;;;;;5096132;28;20115;-78
2022/07/20 05:13:53;;;;;;;4.47;2.50;;;28.20;51.30;;;;;;5096508;28;20035;-79
2022/07/20 05:16:19;;;;;;;6.15;2.80;;;28.50;50.20;;;;;;5078685;28;20118;-78
2022/07/20 05:18:45;;;;;;;5.57;2.85;;;28.80;51.50;;;;;;4364912;28;10000832;-79
2022/07/20 05:21:11;;;;;;;4.85;2.50;;;29.00;50.50;;;;;;5038750;28;20036;-79
2022/07/20 05:23:37;;;;;;;5.55;2.60;;;29.00;49.60;;;;;;5085331;28;20463;-80
2022/07/20 05:26:03;;;;;;;5.10;2.55;;;29.10;48.50;;;;;;5070039;28;20051;-78
2022/07/20 05:28:29;;;;;;;4.70;2.67;;;29.10;48.00;;;;;;5073392;28;20040;-78
2022/07/20 05:30:55;;;;;;;5.30;2.55;;;29.40;48.80;;;;;;5072107;28;20035;-79
2022/07/20 05:33:21;;;;;;;3.65;2.30;;;29.50;48.50;;;;;;5072622;28;20028;-79
2022/07/20 05:35:49;;;;;;;5.07;2.40;;;29.60;48.40;;;;;;5055892;28;20036;-79
2022/07/20 05:38:16;;;;;;;5.00;2.80;;;29.80;47.80;;;;;;5053652;28;20055;-79
2022/07/20 05:40:42;;;;;;;5.47;2.40;;;29.90;47.70;;;;;;5058842;28;20028;-78
2022/07/20 05:43:08;;;;;;;5.75;2.58;;;29.40;45.50;;;;;;5074199;28;20551;-77
2022/07/20 05:45:34;;;;;;;4.78;2.40;;;28.90;46.70;;;;;;5086536;28;20020;-85
2022/07/20 05:47:59;;;;;;;7.15;2.58;;;29.10;47.60;;;;;;5088310;28;20398;-79
2022/07/20 05:50:25;;;;;;;4.50;2.40;;;29.70;46.10;;;;;;5096325;28;20077;-81
2022/07/20 05:52:51;;;;;;;3.85;2.28;;;30.20;45.70;;;;;;5068692;28;20032;-79
2022/07/20 05:55:17;;;;;;;6.65;3.10;;;30.70;44.90;;;;;;5072607;28;20112;-79
2022/07/20 05:57:43;;;;;;;9.10;2.60;;;30.50;45.20;;;;;;5075154;28;20064;-80
2022/07/20 06:00:10;;;;;;;6.47;4.30;;;30.70;45.90;;;;;;5075395;28;20044;-79
2022/07/20 06:02:35;;;;;;;6.57;2.50;;;30.80;45.60;;;;;;5056391;28;20020;-78
2022/07/20 06:05:01;;;;;;;6.88;2.50;;;30.60;45.90;;;;;;5075681;28;20074;-80
2022/07/20 06:07:27;;;;;;;6.93;2.70;;;30.70;46.50;;;;;;5075296;28;20479;-80
2022/07/20 06:09:52;;;;;;;5.32;2.60;;;31.00;47.30;;;;;;5057347;28;20111;-80
2022/07/20 06:12:18;;;;;;;5.03;2.40;;;31.30;47.40;;;;;;5057262;28;20090;-79
2022/07/20 06:14:44;;;;;;;4.30;2.30;;;31.50;47.40;;;;;;5073850;28;20505;-80
2022/07/20 06:17:11;;;;;;;6.25;2.50;;;31.70;46.00;;;;;;5057046;28;20028;-78
2022/07/20 06:19:37;;;;;;;25.83;4.45;;;31.60;45.50;;;;;;5074501;28;20581;-79
2022/07/20 06:22:03;;;;;;;6.45;2.90;;;31.40;46.10;;;;;;5075475;28;20025;-78
2022/07/20 06:24:28;;;;;;;5.63;2.50;;;31.60;46.90;;;;;;5073019;28;20108;-79
2022/07/20 06:26:54;;;;;;;9.70;2.47;;;31.10;45.50;;;;;;5073037;28;20360;-77
2022/07/20 06:29:20;;;;;;;7.30;2.50;;;31.00;44.20;;;;;;5074509;28;20020;-82
2022/07/20 06:31:46;;;;;;;6.07;2.55;;;30.50;44.70;;;;;;5056961;28;20059;-79
2022/07/20 06:34:14;;;;;;;5.45;2.40;;;30.70;45.20;;;;;;5072831;28;20360;-77
2022/07/20 06:36:44;;;;;;;6.32;2.50;;;31.10;45.00;;;;;;5056728;28;20032;-79
2022/07/20 06:39:09;;;;;;;6.72;2.47;;;31.30;46.00;;;;;;5074671;28;20044;-80
2022/07/20 06:41:35;;;;;;;4.35;2.53;;;31.60;45.90;;;;;;5074821;28;20024;-83
2022/07/20 06:44:01;;;;;;;4.25;2.30;;;32.10;45.20;;;;;;5073642;28;20545;-82
2022/07/20 06:46:35;;;;;;;6.43;2.47;;;32.40;44.20;;;;;;5056602;28;20025;-78
2022/07/20 06:49:00;;;;;;;5.65;2.50;;;32.50;44.20;;;;;;5074761;28;20070;-80
2022/07/20 06:51:26;;;;;;;6.65;2.50;;;32.40;44.30;;;;;;5073078;28;20025;-80
2022/07/20 06:53:52;;;;;;;4.75;2.45;;;32.70;43.90;;;;;;5073483;28;20024;-81
2022/07/20 06:56:17;;;;;;;4.13;2.28;;;32.80;44.60;;;;;;5073225;28;20024;-80
2022/07/20 06:58:43;;;;;;;5.05;2.53;;;33.00;43.70;;;;;;5073701;28;20568;-77
2022/07/20 07:01:10;;;;;;;5.55;2.40;;;32.80;42.90;;;;;;5074305;28;20012;-81
2022/07/20 07:03:36;;;;;;;3.47;2.20;;;32.50;43.90;;;;;;5073399;28;20071;-79
2022/07/20 07:06:02;;;;;;;5.15;2.50;;;32.80;44.40;;;;;;5056209;28;20060;-81
2022/07/20 07:08:27;;;;;;;4.80;2.40;;;33.20;43.60;;;;;;5056037;28;20175;-79
2022/07/20 07:10:53;;;;;;;7.97;2.85;;;33.10;43.40;;;;;;5072911;28;20073;-79
2022/07/20 07:13:19;;;;;;;5.05;2.50;;;33.20;43.90;;;;;;5055734;28;20054;-79
2022/07/20 07:15:44;;;;;;;5.75;2.50;;;33.40;44.40;;;;;;5056172;28;20025;-79
2022/07/20 07:18:10;;;;;;;4.63;2.40;;;33.20;42.60;;;;;;5074404;28;20055;-81
2022/07/20 07:20:36;;;;;;;6.30;2.35;;;32.90;43.90;;;;;;5073324;28;20468;-82
2022/07/20 07:23:01;;;;;;;5.35;2.30;;;33.30;45.00;;;;;;5074774;28;20025;-79
2022/07/20 07:25:27;;;;;;;5.57;2.30;;;33.70;43.20;;;;;;5073618;28;20025;-79
2022/07/20 07:27:53;;;;;;;6.72;2.55;;;33.90;42.90;;;;;;5072367;28;20024;-81
2022/07/20 07:30:18;;;;;;;5.70;2.40;;;33.90;42.70;;;;;;5072395;28;20031;-80
2022/07/20 07:32:44;;;;;;;3.85;2.08;;;33.90;43.20;;;;;;5071793;28;20503;-79
2022/07/20 07:35:10;;;;;;;12.95;2.53;;;33.90;43.00;;;;;;5073126;28;20700;-76
2022/07/20 07:37:39;;;;;;;6.95;2.50;;;34.10;43.20;;;;;;5073429;28;20053;-82
2022/07/20 07:40:05;;;;;;;6.35;2.10;;;34.20;43.20;;;;;;5071974;28;20028;-77
2022/07/20 07:42:32;;;;;;;5.97;2.25;;;34.30;41.80;;;;;;4022102;28;10000998;-81
2022/07/20 07:44:59;;;;;;;5.45;2.30;;;34.30;42.10;;;;;;5092092;28;20032;-81
2022/07/20 07:47:25;;;;;;;9.18;2.40;;;34.40;42.40;;;;;;5092497;28;20023;-82
2022/07/20 07:49:50;;;;;;;4.90;2.67;;;34.60;42.60;;;;;;5093337;28;20020;-82
2022/07/20 07:52:16;;;;;;;5.90;2.55;;;34.90;43.00;;;;;;5093881;28;20024;-82
2022/07/20 07:54:42;;;;;;;4.15;2.10;;;35.10;41.70;;;;;;5076037;28;20028;-83
2022/07/20 07:57:07;;;;;;;7.60;2.40;;;35.10;43.20;;;;;;5094599;28;20035;-83
2022/07/20 07:59:34;;;;;;;7.25;2.28;;;35.20;42.10;;;;;;5093752;28;20473;-79
2022/07/20 08:01:59;;;;;;;7.13;2.42;;;35.40;42.80;;;;;;5093307;28;20020;-76
2022/07/20 08:04:25;;;;;;;4.03;2.20;;;35.20;41.00;;;;;;5075390;28;20036;-82
2022/07/20 08:06:51;;;;;;;6.35;2.60;;;35.10;42.30;;;;;;5075474;28;20382;-82
2022/07/20 08:09:16;;;;;;;6.50;1.95;;;35.30;42.70;;;;;;5075406;28;20028;-76
2022/07/20 08:11:42;;;;;;;5.20;2.35;;;35.50;41.90;;;;;;5093800;28;20044;-82
2022/07/20 08:14:08;;;;;;;4.28;2.33;;;35.50;41.70;;;;;;5075536;28;20023;-83
2022/07/20 08:16:33;;;;;;;4.03;2.22;;;35.60;41.50;;;;;;5075371;28;20463;-81
2022/07/20 08:18:59;;;;;;;6.10;2.30;;;35.80;42.70;;;;;;5074751;28;20101;-79
2022/07/20 08:21:25;;;;;;;4.40;2.30;;;35.90;41.20;;;;;;5093497;28;20024;-79
2022/07/20 08:23:51;;;;;;;4.43;2.30;;;35.70;41.80;;;;;;5093366;28;20051;-81
2022/07/20 08:26:16;;;;;;;5.10;2.10;;;35.70;40.30;;;;;;5078092;28;20360;-82
2022/07/20 08:28:42;;;;;;;6.40;2.65;;;35.70;41.80;;;;;;5079085;28;20051;-84
2022/07/20 08:31:07;;;;;;;5.70;2.55;;;36.10;42.10;;;;;;5080079;28;20111;-84
2022/07/20 08:33:33;;;;;;;6.88;2.10;;;36.20;40.10;;;;;;5080018;28;20028;-87
2022/07/20 08:35:59;;;;;;;4.57;2.22;;;36.30;41.50;;;;;;5079585;28;20028;-80
2022/07/20 08:38:25;;;;;;;5.95;2.30;;;36.50;41.40;;;;;;5097458;28;20497;-84
2022/07/20 08:40:50;;;;;;;6.47;2.40;;;36.70;42.10;;;;;;5078554;28;20028;-79
2022/07/20 08:43:17;;;;;;;5.95;2.42;;;36.80;40.40;;;;;;5097032;28;20028;-84
2022/07/20 08:45:44;;;;;;;10.73;2.40;;;36.70;40.80;;;;;;5079023;28;20162;-83
2022/07/20 08:48:12;;;;;;;5.63;2.42;;;36.90;40.80;;;;;;5078407;28;20020;-78
2022/07/20 08:50:38;;;;;;;6.35;2.30;;;36.90;40.50;;;;;;5096156;28;20108;-82
2022/07/20 08:53:05;;;;;;;5.30;2.30;;;36.60;40.60;;;;;;5096713;28;20478;-79
2022/07/20 08:55:31;;;;;;;8.57;2.35;;;36.80;40.10;;;;;;5096728;28;20024;-86
2022/07/20 08:57:57;;;;;;;4.38;2.03;;;36.70;41.10;;;;;;5078391;28;20505;-76
2022/07/20 09:00:24;;;;;;;4.78;2.00;;;36.70;39.40;;;;;;5094998;28;20016;-80
2022/07/20 09:02:57;;;;;;;4.32;2.20;;;36.40;39.90;;;;;;5095467;28;20073;-79
2022/07/20 09:05:24;;;;;;;5.97;2.25;;;36.10;39.70;;;;;;5095671;28;20023;-81
2022/07/20 09:07:55;;;;;;;3.85;2.13;;;35.80;39.70;;;;;;5078181;28;20024;-80
2022/07/20 09:10:28;;;;;;;5.13;2.40;;;36.30;40.60;;;;;;5077439;28;20037;-80
2022/07/20 09:12:58;;;;;;;4.47;2.17;;;36.80;40.20;;;;;;5095656;28;20053;-79
2022/07/20 09:15:35;;;;;;;4.82;2.30;;;36.80;39.50;;;;;;5077948;28;20096;-80
2022/07/20 09:18:08;;;;;;;4.65;2.05;;;36.80;39.30;;;;;;5077637;28;20494;-80
2022/07/20 09:20:36;;;;;;;6.28;2.10;;;37.10;39.50;;;;;;5078483;28;20139;-83
2022/07/20 09:23:05;;;;;;;6.15;2.00;;;37.50;39.60;;;;;;5098074;28;20437;-85
2022/07/20 09:25:31;;;;;;;4.00;2.27;;;37.80;39.20;;;;;;5097505;28;20355;-83
2022/07/20 09:27:58;;;;;;;4.05;1.80;;;38.10;39.30;;;;;;5079871;28;20498;-85
2022/07/20 09:30:30;;;;;;;8.73;2.20;;;38.50;40.00;;;;;;5078940;28;20356;-89
2022/07/20 09:33:01;;;;;;;6.57;2.40;;;38.50;38.40;;;;;;5079111;28;20024;-80
2022/07/20 09:35:33;;;;;;;6.32;2.05;;;38.70;38.60;;;;;;5097474;28;20107;-92
2022/07/20 09:38:01;;;;;;;6.65;2.47;;;38.80;38.20;;;;;;5079991;28;20036;-90
2022/07/20 09:40:28;;;;;;;5.55;2.30;;;38.90;37.60;;;;;;5096680;28;20024;-84
2022/07/20 09:42:53;;;;;;;6.18;2.38;;;38.80;36.90;;;;;;5097412;28;20055;-84
2022/07/20 09:45:28;;;;;;;5.68;2.35;;;38.70;37.90;;;;;;5079062;28;20440;-81
2022/07/20 09:48:06;;;;;;;5.18;2.08;;;38.90;37.00;;;;;;5078278;28;20024;-88
2022/07/20 09:50:38;;;;;;;6.22;2.20;;;38.80;37.10;;;;;;5079696;28;20024;-89
2022/07/20 09:53:05;;;;;;;3.63;2.10;;;39.00;37.40;;;;;;5078592;28;20024;-84
2022/07/20 09:55:32;;;;;;;4.82;2.40;;;39.20;37.30;;;;;;5096413;28;20066;-81
2022/07/20 09:57:58;;;;;;;4.20;2.40;;;39.30;36.80;;;;;;5096391;28;20024;-88
2022/07/20 10:00:24;;;;;;;24.90;22.95;;;39.30;36.90;;;;;;5096416;28;20036;-81
2022/07/20 10:02:52;;;;;;;5.40;2.25;;;39.20;37.30;;;;;;5079114;28;20020;-86
2022/07/20 10:05:20;;;;;;;6.65;2.40;;;39.20;37.40;;;;;;5096663;28;20028;-79
2022/07/20 10:07:46;;;;;;;3.55;2.17;;;39.40;37.00;;;;;;5096113;28;20527;-77
2022/07/20 10:10:13;;;;;;;5.03;2.22;;;39.50;37.40;;;;;;5096707;28;20025;-87
2022/07/20 10:12:39;;;;;;;6.15;2.28;;;39.70;37.20;;;;;;5096502;28;20028;-85
2022/07/20 10:15:12;;;;;;;4.57;2.72;;;39.50;37.00;;;;;;5094579;28;20077;-80
2022/07/20 10:17:39;;;;;;;5.43;2.10;;;38.90;37.10;;;;;;5095897;28;20441;-86
2022/07/20 10:20:27;;;;;;;5.07;2.33;;;39.00;37.70;;;;;;5095692;28;20480;-78
2022/07/20 10:23:14;;;;;;;2.92;1.88;;;39.30;37.50;;;;;;5077922;28;20050;-81
2022/07/20 10:25:41;;;;;;;7.50;2.47;;;39.50;37.50;;;;;;5095225;28;20375;-78
2022/07/20 10:28:27;;;;;;;5.25;2.22;;;39.40;37.20;;;;;;5094983;28;20020;-78
2022/07/20 10:30:55;;;;;;;4.28;2.25;;;39.30;37.10;;;;;;5095154;28;20093;-82
2022/07/20 10:33:21;;;;;;;3.85;2.28;;;39.10;36.80;;;;;;5095713;28;20493;-83
2022/07/20 10:35:48;;;;;;;5.70;2.30;;;39.30;38.00;;;;;;5096283;28;20028;-80
2022/07/20 10:38:21;;;;;;;4.50;2.20;;;39.70;37.70;;;;;;5077782;28;20040;-91
2022/07/20 10:44:19;;;;;;;4.18;2.10;;;40.40;37.50;;;;;;5095390;28;20096;-82
2022/07/20 10:46:46;;;;;;;6.57;2.17;;;40.40;37.10;;;;;;5077281;28;20107;-80
2022/07/20 10:49:11;;;;;;;6.20;2.22;;;40.20;37.30;;;;;;5094640;28;20024;-81
2022/07/20 10:51:37;;;;;;;6.25;2.30;;;40.10;36.50;;;;;;5094751;28;20020;-79
2022/07/20 10:54:32;;;;;;;5.15;2.00;;;40.10;37.00;;;;;;5076808;28;20031;-82
2022/07/20 10:57:02;;;;;;;5.00;2.25;;;40.40;38.30;;;;;;5075343;28;20387;-90
2022/07/20 10:59:28;;;;;;;6.50;2.10;;;40.70;37.80;;;;;;5077525;28;20111;-76
2022/07/20 11:01:55;;;;;;;4.60;2.00;;;40.90;37.00;;;;;;5095705;28;20054;-78
2022/07/20 11:04:21;;;;;;;4.30;1.95;;;40.80;36.80;;;;;;5077725;28;20028;-88
2022/07/20 11:06:48;;;;;;;5.47;2.25;;;40.70;37.40;;;;;;5077083;28;20028;-81
2022/07/20 11:09:15;;;;;;;5.50;2.40;;;40.40;36.90;;;;;;5077272;28;20085;-83
2022/07/20 11:11:42;;;;;;;4.60;2.20;;;40.40;37.10;;;;;;5077861;28;20020;-79
2022/07/20 11:14:10;;;;;;;5.22;2.25;;;40.30;37.00;;;;;;5076692;28;20028;-78
2022/07/20 11:16:38;;;;;;;5.45;2.30;;;40.30;37.20;;;;;;5077520;28;20024;-83
2022/07/20 11:19:06;;;;;;;8.98;2.55;;;40.40;37.50;;;;;;5076723;28;20048;-77
2022/07/20 11:21:43;;;;;;;4.63;2.38;;;40.30;36.80;;;;;;5077155;28;20024;-81
2022/07/20 11:24:26;;;;;;;4.82;2.22;;;40.30;36.50;;;;;;5095197;28;20020;-82
2022/07/20 11:26:53;;;;;;;6.40;2.30;;;40.50;36.40;;;;;;5095294;28;20038;-79
2022/07/20 11:29:18;;;;;;;4.97;2.28;;;40.60;37.20;;;;;;5094656;28;20347;-83
2022/07/20 11:31:44;;;;;;;6.35;2.28;;;40.30;36.70;;;;;;5095343;28;20538;-83
2022/07/20 11:34:13;;;;;;;7.20;2.78;;;40.20;37.00;;;;;;5077464;28;20048;-87
2022/07/20 11:36:39;;;;;;;5.68;2.60;;;40.50;37.30;;;;;;5077015;28;20024;-76
2022/07/20 11:39:10;;;;;;;6.30;2.60;;;40.50;36.50;;;;;;5094405;28;20032;-82
2022/07/20 11:41:41;;;;;;;5.70;2.42;;;40.20;36.70;;;;;;5094649;28;20409;-85
2022/07/20 11:44:14;;;;;;;7.32;2.35;;;40.20;36.50;;;;;;5095129;28;20016;-83
2022/07/20 11:46:41;;;;;;;7.32;2.33;;;40.20;36.90;;;;;;5076896;28;20416;-85
2022/07/20 11:49:13;;;;;;;3.85;2.20;;;40.40;36.80;;;;;;5095085;28;20082;-88
2022/07/20 11:51:40;;;;;;;4.97;2.63;;;40.60;37.60;;;;;;5076772;28;20135;-86
2022/07/20 11:54:06;;;;;;;5.18;2.30;;;40.80;36.80;;;;;;5095077;28;20023;-83
2022/07/20 11:56:34;;;;;;;4.50;2.38;;;40.50;36.20;;;;;;5094636;28;20430;-79
2022/07/20 11:59:01;;;;;;;4.63;2.30;;;40.50;36.40;;;;;;5076830;28;20124;-84
2022/07/20 12:01:30;;;;;;;3.63;2.00;;;40.60;36.30;;;;;;5096769;28;20444;-80
2022/07/20 12:04:00;;;;;;;4.68;2.20;;;40.40;35.80;;;;;;5079837;28;20028;-79
2022/07/20 12:06:31;;;;;;;5.05;2.50;;;40.10;36.20;;;;;;5098219;28;20024;-80
2022/07/20 12:09:11;;;;;;;7.43;2.53;;;40.20;35.80;;;;;;5079428;28;20501;-80
2022/07/20 12:12:00;;;;;;;4.75;2.45;;;40.30;36.60;;;;;;5099355;28;20374;-83
2022/07/20 12:14:34;;;;;;;4.10;2.20;;;40.40;37.50;;;;;;5098384;28;20081;-87
2022/07/20 12:17:20;;;;;;;4.13;2.28;;;40.50;36.60;;;;;;5097608;28;20070;-78
2022/07/20 12:19:49;;;;;;;6.20;2.45;;;40.50;36.10;;;;;;5097409;28;20051;-83
2022/07/20 12:22:19;;;;;;;5.53;2.20;;;40.20;36.00;;;;;;5098387;28;20031;-87
2022/07/20 12:25:05;;;;;;;6.07;2.70;;;40.20;36.20;;;;;;5099053;28;20035;-84
2022/07/20 12:27:32;;;;;;;3.90;2.13;;;40.40;36.70;;;;;;5098406;28;20020;-85
2022/07/20 12:29:59;;;;;;;8.10;2.30;;;40.60;37.10;;;;;;5079864;28;20026;-83
2022/07/20 12:32:33;;;;;;;6.78;2.50;;;40.20;36.40;;;;;;5080751;28;20104;-82
2022/07/20 12:35:00;;;;;;;5.28;2.30;;;40.10;36.80;;;;;;5080548;28;20024;-81
2022/07/20 12:37:56;;;;;;;6.53;2.22;;;40.20;36.00;;;;;;5080146;28;20089;-79
2022/07/20 12:40:39;;;;;;;6.72;2.22;;;40.10;36.20;;;;;;5080409;28;20063;-83
2022/07/20 12:43:28;;;;;;;5.32;2.38;;;40.10;35.90;;;;;;5097002;28;20063;-80
2022/07/20 12:45:55;;;;;;;4.30;2.20;;;40.10;36.20;;;;;;5079322;28;20044;-78
2022/07/20 12:48:21;;;;;;;4.68;2.40;;;39.90;36.50;;;;;;5097462;28;20024;-82
2022/07/20 12:50:47;;;;;;;4.10;2.20;;;39.80;36.50;;;;;;5096972;28;20024;-79
2022/07/20 12:53:12;;;;;;;3.58;2.25;;;39.80;36.10;;;;;;5097318;28;20028;-81